This is the latest recevied weather packets stored in our database for station/object KC3JUG-3. If no packets are shown the sender has not sent any weather packets the latest 10 day(s).
| Time | Temp. | Humidity | Pressure | Rain* | Wind** | Luminosity | Snow |
|---|---|---|---|---|---|---|---|
| 1777247447 | 12.22° C | 79% | 1022.1 hPa | 0 mm | - | - | - |
| 1777242948 | 12.78° C | 72% | 1021.3 hPa | 0 mm | - | - | - |
| 1777241766 | 12.78° C | 70% | 1021.3 hPa | 0 mm | - | - | - |
| 1777240854 | 13.33° C | 70% | 1021.2 hPa | 0 mm | - | - | - |
| 1777239951 | 13.33° C | 70% | 1021.2 hPa | 0 mm | - | - | - |
| 1777239347 | 13.33° C | 71% | 1021.2 hPa | 0 mm | - | - | - |
| 1777238448 | 12.78° C | 71% | 1021 hPa | 0 mm | - | - | - |
| 1777237547 | 12.78° C | 71% | 1020.9 hPa | 0 mm | - | - | - |
| 1777236947 | 12.78° C | 71% | 1020.9 hPa | 0 mm | - | - | - |
| 1777236650 | 12.78° C | 71% | 1020.9 hPa | 0 mm | - | - | - |
| 1777236350 | 12.78° C | 71% | 1020.6 hPa | 0 mm | - | - | - |
| 1777236046 | 12.78° C | 73% | 1020.6 hPa | 0 mm | - | - | - |
| 1777235150 | 12.78° C | 73% | 1020.6 hPa | 0 mm | - | - | - |
| 1777234249 | 12.78° C | 72% | 1020.7 hPa | 0 mm | - | - | - |
| 1777231853 | 12.78° C | 72% | 1020.7 hPa | 0 mm | - | - | - |
| 1777230957 | 12.78° C | 72% | 1020.6 hPa | 0 mm | - | - | - |
| 1777230060 | 12.22° C | 74% | 1020.6 hPa | 0 mm | - | - | - |
| 1777228258 | 11.11° C | 77% | 1020.7 hPa | 0 mm | - | - | - |
| 1777226747 | 10.56° C | 80% | 1020.9 hPa | 0 mm | - | - | - |
| 1777225557 | 10° C | 80% | 1020.9 hPa | 0 mm | - | - | - |
| 1777224659 | 10° C | 82% | 1021.1 hPa | 0 mm | - | - | - |
| 1777223445 | 9.44° C | 84% | 1021 hPa | 0 mm | - | - | - |
| 1777223145 | 8.89° C | 84% | 1021.2 hPa | 0 mm | - | - | - |
| 1777218365 | 7.22° C | 92% | 1021.4 hPa | 0 mm | - | - | - |
| 1777216245 | 6.67° C | 95% | 1021.1 hPa | 0 mm | - | - | - |
* Rain latest hour (hover to see other rain measurements)
** Current wind speed in m/s (hover to see current wind gust speed)